sensor_id;sensor_type;location;lat;lon;timestamp;pressure;altitude;pressure_sealevel;temperature;humidity
39177;BME280;24904;52.208;21.192;2024-02-26T00:04:56;99694.40;;;6.80;76.81
39177;BME280;24904;52.208;21.192;2024-02-26T00:10:01;99698.29;;;6.80;77.44
39177;BME280;24904;52.208;21.192;2024-02-26T00:15:07;99699.67;;;6.78;77.93
39177;BME280;24904;52.208;21.192;2024-02-26T00:20:13;99696.34;;;6.80;78.56
39177;BME280;24904;52.208;21.192;2024-02-26T00:25:18;99691.56;;;6.84;78.96
39177;BME280;24904;52.208;21.192;2024-02-26T00:30:23;99684.77;;;6.89;79.25
39177;BME280;24904;52.208;21.192;2024-02-26T00:35:29;99678.98;;;6.93;79.56
39177;BME280;24904;52.208;21.192;2024-02-26T00:40:34;99674.95;;;6.94;78.46
39177;BME280;24904;52.208;21.192;2024-02-26T00:45:39;99681.79;;;6.77;77.81
39177;BME280;24904;52.208;21.192;2024-02-26T00:50:44;99678.27;;;6.72;78.72
39177;BME280;24904;52.208;21.192;2024-02-26T00:55:49;99670.67;;;6.69;79.22
39177;BME280;24904;52.208;21.192;2024-02-26T01:00:54;99665.37;;;6.69;78.99
39177;BME280;24904;52.208;21.192;2024-02-26T01:05:59;99660.54;;;6.59;78.12
39177;BME280;24904;52.208;21.192;2024-02-26T01:11:05;99665.35;;;6.48;78.09
39177;BME280;24904;52.208;21.192;2024-02-26T01:16:10;99665.15;;;6.40;78.68
39177;BME280;24904;52.208;21.192;2024-02-26T01:21:15;99666.13;;;6.38;79.07
39177;BME280;24904;52.208;21.192;2024-02-26T01:26:20;99663.86;;;6.32;78.58
39177;BME280;24904;52.208;21.192;2024-02-26T01:31:25;99661.02;;;6.21;78.13
39177;BME280;24904;52.208;21.192;2024-02-26T01:36:30;99665.27;;;6.11;77.89
39177;BME280;24904;52.208;21.192;2024-02-26T01:41:36;99668.02;;;5.99;78.08
39177;BME280;24904;52.208;21.192;2024-02-26T01:46:41;99666.99;;;5.90;79.08
39177;BME280;24904;52.208;21.192;2024-02-26T01:51:47;99664.34;;;5.90;79.59
39177;BME280;24904;52.208;21.192;2024-02-26T01:56:52;99670.01;;;5.85;78.86
39177;BME280;24904;52.208;21.192;2024-02-26T02:02:01;99676.15;;;5.77;78.59
39177;BME280;24904;52.208;21.192;2024-02-26T02:07:07;99672.05;;;5.66;78.34
39177;BME280;24904;52.208;21.192;2024-02-26T02:12:12;99668.22;;;5.57;78.37
39177;BME280;24904;52.208;21.192;2024-02-26T02:17:17;99670.77;;;5.48;78.64
39177;BME280;24904;52.208;21.192;2024-02-26T02:22:22;99669.84;;;5.45;80.24
39177;BME280;24904;52.208;21.192;2024-02-26T02:27:28;99670.26;;;5.49;80.66
39177;BME280;24904;52.208;21.192;2024-02-26T02:32:34;99669.13;;;5.52;80.63
39177;BME280;24904;52.208;21.192;2024-02-26T02:37:40;99672.70;;;5.41;79.26
39177;BME280;24904;52.208;21.192;2024-02-26T02:42:45;99679.13;;;5.38;80.85
39177;BME280;24904;52.208;21.192;2024-02-26T02:47:50;99680.59;;;5.46;81.43
39177;BME280;24904;52.208;21.192;2024-02-26T02:52:55;99683.32;;;5.47;81.67
39177;BME280;24904;52.208;21.192;2024-02-26T02:58:00;99688.16;;;5.47;80.67
39177;BME280;24904;52.208;21.192;2024-02-26T03:03:06;99698.15;;;5.37;79.69
39177;BME280;24904;52.208;21.192;2024-02-26T03:08:11;99701.35;;;5.30;80.26
39177;BME280;24904;52.208;21.192;2024-02-26T03:13:16;99703.17;;;5.28;80.97
39177;BME280;24904;52.208;21.192;2024-02-26T03:18:21;99707.58;;;5.30;80.99
39177;BME280;24904;52.208;21.192;2024-02-26T03:23:26;99706.48;;;5.23;80.04
39177;BME280;24904;52.208;21.192;2024-02-26T03:28:33;99708.60;;;5.21;80.90
39177;BME280;24904;52.208;21.192;2024-02-26T03:33:38;99706.36;;;5.24;81.06
39177;BME280;24904;52.208;21.192;2024-02-26T03:38:44;99707.12;;;5.23;81.24
39177;BME280;24904;52.208;21.192;2024-02-26T03:43:49;99708.19;;;5.22;81.85
39177;BME280;24904;52.208;21.192;2024-02-26T03:48:54;99705.39;;;5.23;81.80
39177;BME280;24904;52.208;21.192;2024-02-26T03:53:59;99699.48;;;5.22;82.12
39177;BME280;24904;52.208;21.192;2024-02-26T03:59:04;99699.68;;;5.25;82.27
39177;BME280;24904;52.208;21.192;2024-02-26T04:04:09;99703.17;;;5.24;81.46
39177;BME280;24904;52.208;21.192;2024-02-26T04:09:15;99702.59;;;5.19;81.39
39177;BME280;24904;52.208;21.192;2024-02-26T04:14:20;99701.26;;;5.22;81.95
39177;BME280;24904;52.208;21.192;2024-02-26T04:19:25;99700.78;;;5.15;80.46
39177;BME280;24904;52.208;21.192;2024-02-26T04:24:30;99697.70;;;5.02;80.17
39177;BME280;24904;52.208;21.192;2024-02-26T04:29:35;99698.23;;;5.02;81.70
39177;BME280;24904;52.208;21.192;2024-02-26T04:34:40;99698.64;;;5.09;82.93
39177;BME280;24904;52.208;21.192;2024-02-26T04:39:45;99694.45;;;5.14;83.08
39177;BME280;24904;52.208;21.192;2024-02-26T04:44:50;99690.37;;;5.22;83.47
39177;BME280;24904;52.208;21.192;2024-02-26T04:49:55;99693.81;;;5.23;82.62
39177;BME280;24904;52.208;21.192;2024-02-26T04:55:00;99697.54;;;5.22;82.81
39177;BME280;24904;52.208;21.192;2024-02-26T05:00:08;99701.05;;;5.20;82.44
39177;BME280;24904;52.208;21.192;2024-02-26T05:05:13;99700.77;;;5.18;83.34
39177;BME280;24904;52.208;21.192;2024-02-26T05:10:18;99699.04;;;5.20;83.53
39177;BME280;24904;52.208;21.192;2024-02-26T05:15:23;99703.96;;;5.25;82.82
39177;BME280;24904;52.208;21.192;2024-02-26T05:20:28;99702.04;;;5.19;82.06
39177;BME280;24904;52.208;21.192;2024-02-26T05:25:34;99705.40;;;5.20;82.30
39177;BME280;24904;52.208;21.192;2024-02-26T05:30:39;99704.90;;;5.19;81.98
39177;BME280;24904;52.208;21.192;2024-02-26T05:35:44;99710.71;;;5.18;81.95
39177;BME280;24904;52.208;21.192;2024-02-26T05:40:50;99715.34;;;5.12;81.12
39177;BME280;24904;52.208;21.192;2024-02-26T05:45:56;99718.81;;;5.04;81.08
39177;BME280;24904;52.208;21.192;2024-02-26T05:51:01;99729.61;;;5.00;81.03
39177;BME280;24904;52.208;21.192;2024-02-26T05:56:07;99736.84;;;5.01;80.97
39177;BME280;24904;52.208;21.192;2024-02-26T06:01:12;99732.77;;;4.99;81.32
39177;BME280;24904;52.208;21.192;2024-02-26T06:06:18;99738.13;;;5.03;81.68
39177;BME280;24904;52.208;21.192;2024-02-26T06:11:25;99743.91;;;5.07;82.03
39177;BME280;24904;52.208;21.192;2024-02-26T06:16:31;99745.50;;;5.16;82.77
39177;BME280;24904;52.208;21.192;2024-02-26T06:21:37;99741.16;;;5.26;83.44
39177;BME280;24904;52.208;21.192;2024-02-26T06:26:42;99744.44;;;5.41;84.24
39177;BME280;24904;52.208;21.192;2024-02-26T06:31:47;99743.83;;;5.56;84.36
39177;BME280;24904;52.208;21.192;2024-02-26T06:36:54;99749.23;;;5.69;84.32
39177;BME280;24904;52.208;21.192;2024-02-26T06:41:59;99750.57;;;5.85;84.97
39177;BME280;24904;52.208;21.192;2024-02-26T06:47:05;99750.75;;;6.01;85.36
39177;BME280;24904;52.208;21.192;2024-02-26T06:52:10;99750.89;;;6.16;85.84
39177;BME280;24904;52.208;21.192;2024-02-26T06:57:15;99752.95;;;6.31;86.01
39177;BME280;24904;52.208;21.192;2024-02-26T07:02:20;99763.80;;;6.50;86.39
39177;BME280;24904;52.208;21.192;2024-02-26T07:07:25;99762.80;;;6.73;86.75
39177;BME280;24904;52.208;21.192;2024-02-26T07:12:30;99768.92;;;6.95;86.92
39177;BME280;24904;52.208;21.192;2024-02-26T07:17:35;99767.71;;;7.18;87.22
39177;BME280;24904;52.208;21.192;2024-02-26T07:22:41;99768.61;;;7.42;87.17
39177;BME280;24904;52.208;21.192;2024-02-26T07:27:46;99767.59;;;7.65;87.03
39177;BME280;24904;52.208;21.192;2024-02-26T07:32:51;99771.88;;;7.88;86.77
39177;BME280;24904;52.208;21.192;2024-02-26T07:37:56;99775.66;;;8.12;86.48
39177;BME280;24904;52.208;21.192;2024-02-26T07:43:01;99778.42;;;8.35;86.33
39177;BME280;24904;52.208;21.192;2024-02-26T07:48:08;99783.36;;;8.57;86.27
39177;BME280;24904;52.208;21.192;2024-02-26T07:53:13;99781.52;;;8.79;85.99
39177;BME280;24904;52.208;21.192;2024-02-26T07:58:18;99788.29;;;9.02;85.47
39177;BME280;24904;52.208;21.192;2024-02-26T08:03:23;99786.95;;;9.23;85.43
39177;BME280;24904;52.208;21.192;2024-02-26T08:08:28;99788.65;;;9.42;84.84
39177;BME280;24904;52.208;21.192;2024-02-26T08:13:33;99793.46;;;9.62;84.48
39177;BME280;24904;52.208;21.192;2024-02-26T08:18:39;99798.27;;;9.80;84.32
39177;BME280;24904;52.208;21.192;2024-02-26T08:23:45;99800.92;;;9.97;84.05
39177;BME280;24904;52.208;21.192;2024-02-26T08:28:50;99805.23;;;10.13;84.02
39177;BME280;24904;52.208;21.192;2024-02-26T08:33:56;99806.95;;;10.28;84.07
39177;BME280;24904;52.208;21.192;2024-02-26T08:39:02;99803.78;;;10.42;84.02
39177;BME280;24904;52.208;21.192;2024-02-26T08:44:07;99810.00;;;10.53;84.02
39177;BME280;24904;52.208;21.192;2024-02-26T08:49:12;99808.77;;;10.67;83.89
39177;BME280;24904;52.208;21.192;2024-02-26T08:54:17;99813.96;;;10.75;83.71
39177;BME280;24904;52.208;21.192;2024-02-26T08:59:22;99814.90;;;10.81;83.50
39177;BME280;24904;52.208;21.192;2024-02-26T09:04:27;99820.02;;;10.84;83.22
39177;BME280;24904;52.208;21.192;2024-02-26T09:09:32;99832.27;;;10.86;83.00
39177;BME280;24904;52.208;21.192;2024-02-26T09:14:37;99835.22;;;10.81;82.80
39177;BME280;24904;52.208;21.192;2024-02-26T09:19:42;99835.77;;;10.77;82.59
39177;BME280;24904;52.208;21.192;2024-02-26T09:24:47;99838.29;;;10.71;82.72
39177;BME280;24904;52.208;21.192;2024-02-26T09:29:53;99838.17;;;10.67;82.86
39177;BME280;24904;52.208;21.192;2024-02-26T09:34:58;99842.64;;;10.65;82.62
39177;BME280;24904;52.208;21.192;2024-02-26T09:40:05;99837.47;;;10.61;82.81
39177;BME280;24904;52.208;21.192;2024-02-26T09:45:12;99845.15;;;10.58;82.61
39177;BME280;24904;52.208;21.192;2024-02-26T09:50:22;99840.27;;;10.51;82.69
39177;BME280;24904;52.208;21.192;2024-02-26T09:55:27;99842.61;;;10.50;82.71
39177;BME280;24904;52.208;21.192;2024-02-26T10:00:33;99855.16;;;10.49;82.86
39177;BME280;24904;52.208;21.192;2024-02-26T10:05:43;99860.49;;;10.50;82.93
39177;BME280;24904;52.208;21.192;2024-02-26T10:10:49;99860.50;;;10.53;82.82
39177;BME280;24904;52.208;21.192;2024-02-26T10:15:54;99857.76;;;10.54;82.69
39177;BME280;24904;52.208;21.192;2024-02-26T10:21:03;99860.84;;;10.56;82.70
39177;BME280;24904;52.208;21.192;2024-02-26T10:26:08;99855.52;;;10.59;82.58
39177;BME280;24904;52.208;21.192;2024-02-26T10:31:15;99850.48;;;10.65;82.81
39177;BME280;24904;52.208;21.192;2024-02-26T10:36:21;99850.05;;;10.73;82.91
39177;BME280;24904;52.208;21.192;2024-02-26T10:41:26;99850.92;;;10.82;82.68
39177;BME280;24904;52.208;21.192;2024-02-26T10:46:32;99852.59;;;10.91;82.24
39177;BME280;24904;52.208;21.192;2024-02-26T10:51:38;99857.16;;;11.00;81.94
39177;BME280;24904;52.208;21.192;2024-02-26T10:56:44;99850.48;;;11.09;81.88
39177;BME280;24904;52.208;21.192;2024-02-26T11:01:51;99842.56;;;11.18;81.64
39177;BME280;24904;52.208;21.192;2024-02-26T11:06:58;99840.42;;;11.36;81.45
39177;BME280;24904;52.208;21.192;2024-02-26T11:12:05;99841.38;;;11.45;80.88
39177;BME280;24904;52.208;21.192;2024-02-26T11:17:12;99837.59;;;11.56;80.85
39177;BME280;24904;52.208;21.192;2024-02-26T11:22:17;99833.31;;;11.67;80.38
39177;BME280;24904;52.208;21.192;2024-02-26T11:27:30;99825.21;;;11.81;80.33
39177;BME280;24904;52.208;21.192;2024-02-26T11:32:38;99829.58;;;11.94;78.99
39177;BME280;24904;52.208;21.192;2024-02-26T11:37:43;99827.52;;;12.01;78.22
39177;BME280;24904;52.208;21.192;2024-02-26T11:42:56;99826.95;;;12.08;77.98
39177;BME280;24904;52.208;21.192;2024-02-26T11:48:02;99820.58;;;12.25;77.74
39177;BME280;24904;52.208;21.192;2024-02-26T11:53:24;99822.34;;;12.35;77.27
39177;BME280;24904;52.208;21.192;2024-02-26T11:58:32;99832.56;;;12.35;76.71
39177;BME280;24904;52.208;21.192;2024-02-26T12:03:37;99825.73;;;12.34;76.52
39177;BME280;24904;52.208;21.192;2024-02-26T12:08:45;99818.23;;;12.42;76.57
39177;BME280;24904;52.208;21.192;2024-02-26T12:13:50;99806.50;;;12.56;75.87
39177;BME280;24904;52.208;21.192;2024-02-26T12:18:56;99804.81;;;12.75;75.55
39177;BME280;24904;52.208;21.192;2024-02-26T12:24:12;99806.77;;;12.87;74.76
39177;BME280;24904;52.208;21.192;2024-02-26T12:29:17;99812.52;;;12.96;74.42
39177;BME280;24904;52.208;21.192;2024-02-26T12:34:22;99814.92;;;13.11;74.15
39177;BME280;24904;52.208;21.192;2024-02-26T12:39:27;99815.30;;;13.26;73.65
39177;BME280;24904;52.208;21.192;2024-02-26T12:44:33;99817.61;;;13.40;72.94
39177;BME280;24904;52.208;21.192;2024-02-26T12:49:38;99819.77;;;13.53;72.66
39177;BME280;24904;52.208;21.192;2024-02-26T12:54:45;99817.57;;;13.60;71.84
39177;BME280;24904;52.208;21.192;2024-02-26T12:59:51;99814.39;;;13.63;71.42
39177;BME280;24904;52.208;21.192;2024-02-26T13:04:56;99811.54;;;13.65;71.02
39177;BME280;24904;52.208;21.192;2024-02-26T13:10:05;99816.03;;;13.64;70.60
39177;BME280;24904;52.208;21.192;2024-02-26T13:15:16;99812.83;;;13.62;70.54
39177;BME280;24904;52.208;21.192;2024-02-26T13:20:29;99811.45;;;13.64;70.53
39177;BME280;24904;52.208;21.192;2024-02-26T13:25:34;99815.70;;;13.68;70.22
39177;BME280;24904;52.208;21.192;2024-02-26T13:30:42;99815.45;;;13.69;70.21
39177;BME280;24904;52.208;21.192;2024-02-26T13:44:07;99815.31;;;13.73;69.58
39177;BME280;24904;52.208;21.192;2024-02-26T13:49:12;99822.56;;;13.66;69.39
39177;BME280;24904;52.208;21.192;2024-02-26T13:54:17;99826.74;;;13.58;69.23
39177;BME280;24904;52.208;21.192;2024-02-26T13:59:22;99824.70;;;13.49;69.44
39177;BME280;24904;52.208;21.192;2024-02-26T14:04:27;99824.08;;;13.41;69.48
39177;BME280;24904;52.208;21.192;2024-02-26T14:09:32;99819.52;;;13.37;69.59
39177;BME280;24904;52.208;21.192;2024-02-26T14:14:37;99810.33;;;13.38;69.62
39177;BME280;24904;52.208;21.192;2024-02-26T14:19:44;99805.66;;;13.39;69.52
39177;BME280;24904;52.208;21.192;2024-02-26T14:24:51;99805.75;;;13.38;69.47
39177;BME280;24904;52.208;21.192;2024-02-26T14:29:56;99811.65;;;13.37;69.53
39177;BME280;24904;52.208;21.192;2024-02-26T14:35:01;99813.01;;;13.35;69.66
39177;BME280;24904;52.208;21.192;2024-02-26T14:40:08;99818.06;;;13.33;69.87
39177;BME280;24904;52.208;21.192;2024-02-26T14:45:14;99810.36;;;13.31;70.01
39177;BME280;24904;52.208;21.192;2024-02-26T14:50:20;99810.46;;;13.29;70.10
39177;BME280;24904;52.208;21.192;2024-02-26T14:55:25;99817.43;;;13.26;69.97
39177;BME280;24904;52.208;21.192;2024-02-26T15:00:30;99821.15;;;13.22;69.82
39177;BME280;24904;52.208;21.192;2024-02-26T15:05:37;99822.29;;;13.17;69.87
39177;BME280;24904;52.208;21.192;2024-02-26T15:10:42;99822.81;;;13.11;69.94
39177;BME280;24904;52.208;21.192;2024-02-26T15:15:51;99829.35;;;13.09;70.09
39177;BME280;24904;52.208;21.192;2024-02-26T15:20:56;99831.68;;;13.03;70.24
39177;BME280;24904;52.208;21.192;2024-02-26T15:26:01;99840.79;;;12.98;70.59
39177;BME280;24904;52.208;21.192;2024-02-26T15:31:07;99843.25;;;12.92;70.75
39177;BME280;24904;52.208;21.192;2024-02-26T15:36:13;99842.13;;;12.86;71.16
39177;BME280;24904;52.208;21.192;2024-02-26T15:41:18;99837.73;;;12.79;71.44
39177;BME280;24904;52.208;21.192;2024-02-26T15:46:23;99843.30;;;12.74;71.87
39177;BME280;24904;52.208;21.192;2024-02-26T15:51:28;99856.55;;;12.70;72.05
39177;BME280;24904;52.208;21.192;2024-02-26T15:56:33;99859.02;;;12.62;72.32
39177;BME280;24904;52.208;21.192;2024-02-26T16:01:39;99859.93;;;12.55;72.62
39177;BME280;24904;52.208;21.192;2024-02-26T16:06:48;99861.07;;;12.46;72.94
39177;BME280;24904;52.208;21.192;2024-02-26T16:11:55;99862.92;;;12.38;73.21
39177;BME280;24904;52.208;21.192;2024-02-26T16:17:05;99867.37;;;12.28;73.53
39177;BME280;24904;52.208;21.192;2024-02-26T16:22:14;99866.70;;;12.17;73.97
39177;BME280;24904;52.208;21.192;2024-02-26T16:27:19;99872.94;;;12.11;74.61
39177;BME280;24904;52.208;21.192;2024-02-26T16:32:24;99887.55;;;12.08;75.07
39177;BME280;24904;52.208;21.192;2024-02-26T16:37:30;99891.66;;;12.04;75.56
39177;BME280;24904;52.208;21.192;2024-02-26T16:42:36;99893.40;;;12.03;76.03
39177;BME280;24904;52.208;21.192;2024-02-26T16:47:41;99898.42;;;12.03;76.30
39177;BME280;24904;52.208;21.192;2024-02-26T16:52:47;99893.71;;;12.02;76.72
39177;BME280;24904;52.208;21.192;2024-02-26T16:57:53;99897.18;;;12.01;77.15
39177;BME280;24904;52.208;21.192;2024-02-26T17:02:58;99897.02;;;12.02;77.62
39177;BME280;24904;52.208;21.192;2024-02-26T17:08:04;99904.96;;;12.01;77.90
39177;BME280;24904;52.208;21.192;2024-02-26T17:13:10;99909.45;;;11.97;78.31
39177;BME280;24904;52.208;21.192;2024-02-26T17:18:16;99915.80;;;11.96;78.65
39177;BME280;24904;52.208;21.192;2024-02-26T17:23:21;99913.06;;;11.95;78.88
39177;BME280;24904;52.208;21.192;2024-02-26T17:28:26;99910.70;;;11.93;79.27
39177;BME280;24904;52.208;21.192;2024-02-26T17:33:31;99912.77;;;11.90;79.46
39177;BME280;24904;52.208;21.192;2024-02-26T17:38:36;99913.23;;;11.88;79.64
39177;BME280;24904;52.208;21.192;2024-02-26T17:43:42;99914.89;;;11.86;80.03
39177;BME280;24904;52.208;21.192;2024-02-26T17:48:47;99918.05;;;11.84;80.23
39177;BME280;24904;52.208;21.192;2024-02-26T17:53:52;99916.23;;;11.80;80.61
39177;BME280;24904;52.208;21.192;2024-02-26T17:59:00;99911.57;;;11.76;80.86
39177;BME280;24904;52.208;21.192;2024-02-26T18:04:05;99922.03;;;11.73;81.26
39177;BME280;24904;52.208;21.192;2024-02-26T18:09:10;99919.77;;;11.70;81.49
39177;BME280;24904;52.208;21.192;2024-02-26T18:14:16;99922.58;;;11.68;81.64
39177;BME280;24904;52.208;21.192;2024-02-26T18:19:21;99925.64;;;11.65;81.80
39177;BME280;24904;52.208;21.192;2024-02-26T18:24:26;99924.70;;;11.62;81.99
39177;BME280;24904;52.208;21.192;2024-02-26T18:29:31;99926.83;;;11.59;82.19
39177;BME280;24904;52.208;21.192;2024-02-26T18:34:36;99930.67;;;11.55;82.57
39177;BME280;24904;52.208;21.192;2024-02-26T18:39:43;99925.72;;;11.51;82.77
39177;BME280;24904;52.208;21.192;2024-02-26T18:44:48;99926.19;;;11.50;83.07
39177;BME280;24904;52.208;21.192;2024-02-26T18:49:53;99925.17;;;11.48;83.13
39177;BME280;24904;52.208;21.192;2024-02-26T18:54:58;99920.63;;;11.47;83.32
39177;BME280;24904;52.208;21.192;2024-02-26T19:00:04;99922.66;;;11.46;83.44
39177;BME280;24904;52.208;21.192;2024-02-26T19:05:09;99925.17;;;11.46;83.69
39177;BME280;24904;52.208;21.192;2024-02-26T19:10:14;99929.18;;;11.45;83.62
39177;BME280;24904;52.208;21.192;2024-02-26T19:15:19;99932.41;;;11.43;83.89
39177;BME280;24904;52.208;21.192;2024-02-26T19:20:25;99929.90;;;11.42;84.06
39177;BME280;24904;52.208;21.192;2024-02-26T19:25:30;99934.53;;;11.41;84.09
39177;BME280;24904;52.208;21.192;2024-02-26T19:30:35;99931.23;;;11.39;84.31
39177;BME280;24904;52.208;21.192;2024-02-26T19:35:40;99933.96;;;11.37;84.49
39177;BME280;24904;52.208;21.192;2024-02-26T19:40:45;99935.06;;;11.35;84.61
39177;BME280;24904;52.208;21.192;2024-02-26T19:45:50;99940.72;;;11.35;84.99
39177;BME280;24904;52.208;21.192;2024-02-26T19:50:56;99943.15;;;11.34;85.37
39177;BME280;24904;52.208;21.192;2024-02-26T19:56:01;99932.64;;;11.33;85.81
39177;BME280;24904;52.208;21.192;2024-02-26T20:01:07;99932.23;;;11.27;86.19
39177;BME280;24904;52.208;21.192;2024-02-26T20:06:15;99934.17;;;11.25;86.53
39177;BME280;24904;52.208;21.192;2024-02-26T20:11:20;99930.02;;;11.22;86.72
39177;BME280;24904;52.208;21.192;2024-02-26T20:16:25;99933.01;;;11.19;86.87
39177;BME280;24904;52.208;21.192;2024-02-26T20:21:30;99934.02;;;11.18;87.16
39177;BME280;24904;52.208;21.192;2024-02-26T20:26:37;99935.52;;;11.18;87.43
39177;BME280;24904;52.208;21.192;2024-02-26T20:31:42;99934.34;;;11.19;87.79
39177;BME280;24904;52.208;21.192;2024-02-26T20:36:47;99932.21;;;11.20;87.95
39177;BME280;24904;52.208;21.192;2024-02-26T20:41:52;99935.76;;;11.19;88.15
39177;BME280;24904;52.208;21.192;2024-02-26T20:46:57;99938.42;;;11.20;88.29
39177;BME280;24904;52.208;21.192;2024-02-26T20:52:03;99934.81;;;11.20;88.42
39177;BME280;24904;52.208;21.192;2024-02-26T20:57:08;99934.73;;;11.19;88.49
39177;BME280;24904;52.208;21.192;2024-02-26T21:02:15;99934.02;;;11.22;88.64
39177;BME280;24904;52.208;21.192;2024-02-26T21:07:20;99938.66;;;11.23;88.77
39177;BME280;24904;52.208;21.192;2024-02-26T21:12:25;99946.04;;;11.25;88.69
39177;BME280;24904;52.208;21.192;2024-02-26T21:17:30;99951.16;;;11.26;88.78
39177;BME280;24904;52.208;21.192;2024-02-26T21:22:35;99953.45;;;11.28;88.81
39177;BME280;24904;52.208;21.192;2024-02-26T21:27:40;99954.54;;;11.27;88.89
39177;BME280;24904;52.208;21.192;2024-02-26T21:32:46;99959.48;;;11.27;88.86
39177;BME280;24904;52.208;21.192;2024-02-26T21:37:51;99961.59;;;11.25;89.03
39177;BME280;24904;52.208;21.192;2024-02-26T21:42:56;99965.98;;;11.24;89.10
39177;BME280;24904;52.208;21.192;2024-02-26T21:48:01;99971.50;;;11.26;89.17
39177;BME280;24904;52.208;21.192;2024-02-26T21:53:07;99972.52;;;11.27;89.05
39177;BME280;24904;52.208;21.192;2024-02-26T21:58:12;99975.80;;;11.26;89.10
39177;BME280;24904;52.208;21.192;2024-02-26T22:03:17;99985.53;;;11.23;88.94
39177;BME280;24904;52.208;21.192;2024-02-26T22:08:22;99988.83;;;11.22;89.10
39177;BME280;24904;52.208;21.192;2024-02-26T22:13:27;99996.68;;;11.25;89.13
39177;BME280;24904;52.208;21.192;2024-02-26T22:18:32;99997.70;;;11.24;89.13
39177;BME280;24904;52.208;21.192;2024-02-26T22:23:37;100001.70;;;11.22;89.12
39177;BME280;24904;52.208;21.192;2024-02-26T22:28:43;100006.81;;;11.23;89.27
39177;BME280;24904;52.208;21.192;2024-02-26T22:33:48;100010.27;;;11.24;89.19
39177;BME280;24904;52.208;21.192;2024-02-26T22:38:53;100009.40;;;11.24;89.06
39177;BME280;24904;52.208;21.192;2024-02-26T22:43:58;100018.83;;;11.22;89.15
39177;BME280;24904;52.208;21.192;2024-02-26T22:49:03;100022.42;;;11.20;88.96
39177;BME280;24904;52.208;21.192;2024-02-26T22:54:08;100023.13;;;11.15;88.90
39177;BME280;24904;52.208;21.192;2024-02-26T22:59:13;100028.40;;;11.12;89.05
39177;BME280;24904;52.208;21.192;2024-02-26T23:04:18;100029.25;;;11.13;89.04
39177;BME280;24904;52.208;21.192;2024-02-26T23:09:26;100026.95;;;11.10;89.11
39177;BME280;24904;52.208;21.192;2024-02-26T23:14:31;100026.79;;;11.06;88.91
39177;BME280;24904;52.208;21.192;2024-02-26T23:19:36;100034.08;;;11.03;88.95
39177;BME280;24904;52.208;21.192;2024-02-26T23:24:41;100033.91;;;10.98;89.14
39177;BME280;24904;52.208;21.192;2024-02-26T23:29:46;100030.81;;;10.95;88.77
39177;BME280;24904;52.208;21.192;2024-02-26T23:34:51;100028.29;;;10.89;88.94
39177;BME280;24904;52.208;21.192;2024-02-26T23:39:56;100029.60;;;10.83;88.82
39177;BME280;24904;52.208;21.192;2024-02-26T23:45:02;100032.80;;;10.80;89.03
39177;BME280;24904;52.208;21.192;2024-02-26T23:50:08;100036.64;;;10.81;88.96
39177;BME280;24904;52.208;21.192;2024-02-26T23:55:13;100046.98;;;10.77;88.75
